sensor_id;sensor_type;location;lat;lon;timestamp;P1;durP1;ratioP1;P2;durP2;ratioP2
50555;SDS011;36508;52.512;13.450;2022-10-22T00:00:55;19.43;;;17.60;;
50555;SDS011;36508;52.512;13.450;2022-10-22T00:03:21;18.83;;;17.33;;
50555;SDS011;36508;52.512;13.450;2022-10-22T00:05:46;18.93;;;16.10;;
50555;SDS011;36508;52.512;13.450;2022-10-22T00:08:12;17.27;;;15.77;;
50555;SDS011;36508;52.512;13.450;2022-10-22T00:10:38;20.20;;;18.47;;
50555;SDS011;36508;52.512;13.450;2022-10-22T00:13:04;15.70;;;14.40;;
50555;SDS011;36508;52.512;13.450;2022-10-22T00:15:29;17.13;;;15.63;;
50555;SDS011;36508;52.512;13.450;2022-10-22T00:17:55;18.50;;;16.57;;
50555;SDS011;36508;52.512;13.450;2022-10-22T00:20:20;16.70;;;15.30;;
50555;SDS011;36508;52.512;13.450;2022-10-22T00:22:46;17.53;;;15.73;;
50555;SDS011;36508;52.512;13.450;2022-10-22T00:25:12;17.77;;;15.83;;
50555;SDS011;36508;52.512;13.450;2022-10-22T00:27:38;17.97;;;16.20;;
50555;SDS011;36508;52.512;13.450;2022-10-22T00:30:03;17.90;;;16.40;;
50555;SDS011;36508;52.512;13.450;2022-10-22T00:32:29;18.63;;;17.00;;
50555;SDS011;36508;52.512;13.450;2022-10-22T00:34:55;17.00;;;15.50;;
50555;SDS011;36508;52.512;13.450;2022-10-22T00:37:20;16.97;;;15.37;;
50555;SDS011;36508;52.512;13.450;2022-10-22T00:39:46;19.13;;;17.13;;
50555;SDS011;36508;52.512;13.450;2022-10-22T00:42:14;17.60;;;15.90;;
50555;SDS011;36508;52.512;13.450;2022-10-22T00:44:59;17.20;;;15.77;;
50555;SDS011;36508;52.512;13.450;2022-10-22T00:47:26;16.33;;;15.00;;
50555;SDS011;36508;52.512;13.450;2022-10-22T00:49:54;16.20;;;14.80;;
50555;SDS011;36508;52.512;13.450;2022-10-22T00:52:20;18.87;;;17.03;;
50555;SDS011;36508;52.512;13.450;2022-10-22T00:54:46;17.23;;;15.43;;
50555;SDS011;36508;52.512;13.450;2022-10-22T00:57:12;17.53;;;16.00;;
50555;SDS011;36508;52.512;13.450;2022-10-22T00:59:39;20.77;;;18.57;;
50555;SDS011;36508;52.512;13.450;2022-10-22T01:02:05;16.93;;;15.47;;
50555;SDS011;36508;52.512;13.450;2022-10-22T01:04:30;16.93;;;15.43;;
50555;SDS011;36508;52.512;13.450;2022-10-22T01:06:55;19.53;;;17.67;;
50555;SDS011;36508;52.512;13.450;2022-10-22T01:12:01;17.67;;;16.03;;
50555;SDS011;36508;52.512;13.450;2022-10-22T01:17:48;18.27;;;16.57;;
50555;SDS011;36508;52.512;13.450;2022-10-22T01:25:54;17.00;;;15.33;;
50555;SDS011;36508;52.512;13.450;2022-10-22T01:28:41;16.63;;;15.20;;
50555;SDS011;36508;52.512;13.450;2022-10-22T01:31:32;18.30;;;16.70;;
50555;SDS011;36508;52.512;13.450;2022-10-22T01:34:02;15.13;;;13.83;;
50555;SDS011;36508;52.512;13.450;2022-10-22T01:36:30;17.37;;;15.93;;
50555;SDS011;36508;52.512;13.450;2022-10-22T01:38:57;19.30;;;17.50;;
50555;SDS011;36508;52.512;13.450;2022-10-22T01:41:26;19.03;;;17.13;;
50555;SDS011;36508;52.512;13.450;2022-10-22T01:43:53;17.33;;;15.50;;
50555;SDS011;36508;52.512;13.450;2022-10-22T01:46:19;16.17;;;14.67;;
50555;SDS011;36508;52.512;13.450;2022-10-22T01:54:56;17.03;;;15.63;;
50555;SDS011;36508;52.512;13.450;2022-10-22T02:00:15;18.07;;;16.40;;
50555;SDS011;36508;52.512;13.450;2022-10-22T02:02:48;18.83;;;16.93;;
50555;SDS011;36508;52.512;13.450;2022-10-22T02:05:55;18.80;;;16.27;;
50555;SDS011;36508;52.512;13.450;2022-10-22T02:08:19;17.60;;;14.97;;
50555;SDS011;36508;52.512;13.450;2022-10-22T02:10:48;16.10;;;14.80;;
50555;SDS011;36508;52.512;13.450;2022-10-22T02:13:16;16.27;;;14.77;;
50555;SDS011;36508;52.512;13.450;2022-10-22T02:15:45;17.67;;;16.17;;
50555;SDS011;36508;52.512;13.450;2022-10-22T02:18:15;18.23;;;16.53;;
50555;SDS011;36508;52.512;13.450;2022-10-22T02:20:42;19.87;;;18.03;;
50555;SDS011;36508;52.512;13.450;2022-10-22T02:23:09;18.83;;;15.30;;
50555;SDS011;36508;52.512;13.450;2022-10-22T02:25:37;16.33;;;14.90;;
50555;SDS011;36508;52.512;13.450;2022-10-22T02:28:12;18.83;;;17.07;;
50555;SDS011;36508;52.512;13.450;2022-10-22T02:30:46;17.80;;;15.23;;
50555;SDS011;36508;52.512;13.450;2022-10-22T02:33:20;18.63;;;16.70;;
50555;SDS011;36508;52.512;13.450;2022-10-22T02:35:50;17.37;;;16.07;;
50555;SDS011;36508;52.512;13.450;2022-10-22T02:38:16;18.30;;;14.90;;
50555;SDS011;36508;52.512;13.450;2022-10-22T02:40:43;18.80;;;17.10;;
50555;SDS011;36508;52.512;13.450;2022-10-22T02:43:09;18.33;;;16.43;;
50555;SDS011;36508;52.512;13.450;2022-10-22T02:45:34;21.20;;;17.90;;
50555;SDS011;36508;52.512;13.450;2022-10-22T02:48:01;16.57;;;15.07;;
50555;SDS011;36508;52.512;13.450;2022-10-22T02:50:27;17.57;;;15.97;;
50555;SDS011;36508;52.512;13.450;2022-10-22T02:52:53;18.53;;;16.73;;
50555;SDS011;36508;52.512;13.450;2022-10-22T02:55:18;18.67;;;16.90;;
50555;SDS011;36508;52.512;13.450;2022-10-22T02:57:44;18.93;;;16.93;;
50555;SDS011;36508;52.512;13.450;2022-10-22T03:00:09;17.00;;;15.40;;
50555;SDS011;36508;52.512;13.450;2022-10-22T03:02:36;17.43;;;15.83;;
50555;SDS011;36508;52.512;13.450;2022-10-22T03:05:01;18.20;;;16.53;;
50555;SDS011;36508;52.512;13.450;2022-10-22T03:07:27;18.13;;;16.17;;
50555;SDS011;36508;52.512;13.450;2022-10-22T03:09:53;17.30;;;15.90;;
50555;SDS011;36508;52.512;13.450;2022-10-22T03:12:18;16.53;;;15.03;;
50555;SDS011;36508;52.512;13.450;2022-10-22T03:14:44;14.63;;;13.43;;
50555;SDS011;36508;52.512;13.450;2022-10-22T03:17:09;16.53;;;14.97;;
50555;SDS011;36508;52.512;13.450;2022-10-22T03:19:35;15.97;;;14.50;;
50555;SDS011;36508;52.512;13.450;2022-10-22T03:22:01;16.60;;;15.20;;
50555;SDS011;36508;52.512;13.450;2022-10-22T03:24:35;15.90;;;14.50;;
50555;SDS011;36508;52.512;13.450;2022-10-22T03:27:03;14.57;;;13.17;;
50555;SDS011;36508;52.512;13.450;2022-10-22T03:29:29;15.30;;;13.80;;
50555;SDS011;36508;52.512;13.450;2022-10-22T03:31:57;16.00;;;14.50;;
50555;SDS011;36508;52.512;13.450;2022-10-22T03:34:24;19.27;;;17.63;;
50555;SDS011;36508;52.512;13.450;2022-10-22T03:36:50;15.23;;;13.77;;
50555;SDS011;36508;52.512;13.450;2022-10-22T03:39:17;13.67;;;12.53;;
50555;SDS011;36508;52.512;13.450;2022-10-22T03:41:43;15.30;;;14.10;;
50555;SDS011;36508;52.512;13.450;2022-10-22T03:44:10;14.53;;;13.33;;
50555;SDS011;36508;52.512;13.450;2022-10-22T03:46:36;13.80;;;12.73;;
50555;SDS011;36508;52.512;13.450;2022-10-22T03:49:02;18.43;;;16.03;;
50555;SDS011;36508;52.512;13.450;2022-10-22T03:51:28;17.57;;;14.40;;
50555;SDS011;36508;52.512;13.450;2022-10-22T03:53:53;16.33;;;14.63;;
50555;SDS011;36508;52.512;13.450;2022-10-22T03:56:19;16.30;;;14.90;;
50555;SDS011;36508;52.512;13.450;2022-10-22T03:58:45;15.07;;;13.67;;
50555;SDS011;36508;52.512;13.450;2022-10-22T04:01:11;20.30;;;15.60;;
50555;SDS011;36508;52.512;13.450;2022-10-22T04:03:38;15.30;;;13.80;;
50555;SDS011;36508;52.512;13.450;2022-10-22T04:06:08;15.80;;;14.40;;
50555;SDS011;36508;52.512;13.450;2022-10-22T04:08:35;17.90;;;16.30;;
50555;SDS011;36508;52.512;13.450;2022-10-22T04:11:03;14.00;;;12.77;;
50555;SDS011;36508;52.512;13.450;2022-10-22T04:13:31;16.47;;;15.03;;
50555;SDS011;36508;52.512;13.450;2022-10-22T04:16:11;17.03;;;15.50;;
50555;SDS011;36508;52.512;13.450;2022-10-22T04:18:38;16.50;;;15.03;;
50555;SDS011;36508;52.512;13.450;2022-10-22T04:21:06;14.10;;;12.90;;
50555;SDS011;36508;52.512;13.450;2022-10-22T04:23:33;15.13;;;13.93;;
50555;SDS011;36508;52.512;13.450;2022-10-22T04:25:59;17.07;;;15.40;;
50555;SDS011;36508;52.512;13.450;2022-10-22T04:28:25;15.77;;;14.23;;
50555;SDS011;36508;52.512;13.450;2022-10-22T04:30:51;15.33;;;13.83;;
50555;SDS011;36508;52.512;13.450;2022-10-22T04:33:17;16.50;;;15.00;;
50555;SDS011;36508;52.512;13.450;2022-10-22T04:35:43;14.60;;;13.33;;
50555;SDS011;36508;52.512;13.450;2022-10-22T04:38:08;16.77;;;15.27;;
50555;SDS011;36508;52.512;13.450;2022-10-22T04:40:34;17.47;;;16.07;;
50555;SDS011;36508;52.512;13.450;2022-10-22T04:42:59;17.33;;;15.73;;
50555;SDS011;36508;52.512;13.450;2022-10-22T04:45:27;16.70;;;15.10;;
50555;SDS011;36508;52.512;13.450;2022-10-22T04:47:52;17.43;;;15.73;;
50555;SDS011;36508;52.512;13.450;2022-10-22T04:50:18;16.77;;;15.27;;
50555;SDS011;36508;52.512;13.450;2022-10-22T04:52:44;16.53;;;15.03;;
50555;SDS011;36508;52.512;13.450;2022-10-22T04:55:09;17.37;;;15.83;;
50555;SDS011;36508;52.512;13.450;2022-10-22T04:57:35;17.30;;;15.80;;
50555;SDS011;36508;52.512;13.450;2022-10-22T05:00:00;14.53;;;13.27;;
50555;SDS011;36508;52.512;13.450;2022-10-22T05:02:26;15.63;;;14.10;;
50555;SDS011;36508;52.512;13.450;2022-10-22T05:04:51;15.67;;;14.23;;
50555;SDS011;36508;52.512;13.450;2022-10-22T05:07:17;16.37;;;14.97;;
50555;SDS011;36508;52.512;13.450;2022-10-22T05:09:42;15.20;;;13.90;;
50555;SDS011;36508;52.512;13.450;2022-10-22T05:12:08;16.20;;;14.80;;
50555;SDS011;36508;52.512;13.450;2022-10-22T05:14:35;15.50;;;14.00;;
50555;SDS011;36508;52.512;13.450;2022-10-22T05:17:01;14.00;;;12.70;;
50555;SDS011;36508;52.512;13.450;2022-10-22T05:19:28;18.23;;;16.63;;
50555;SDS011;36508;52.512;13.450;2022-10-22T05:21:55;16.83;;;15.27;;
50555;SDS011;36508;52.512;13.450;2022-10-22T05:24:22;20.23;;;14.27;;
50555;SDS011;36508;52.512;13.450;2022-10-22T05:26:50;16.70;;;15.07;;
50555;SDS011;36508;52.512;13.450;2022-10-22T05:29:17;13.80;;;12.70;;
50555;SDS011;36508;52.512;13.450;2022-10-22T05:31:43;17.93;;;16.23;;
50555;SDS011;36508;52.512;13.450;2022-10-22T05:34:09;18.17;;;15.23;;
50555;SDS011;36508;52.512;13.450;2022-10-22T05:36:34;15.40;;;14.20;;
50555;SDS011;36508;52.512;13.450;2022-10-22T05:39:00;17.87;;;16.23;;
50555;SDS011;36508;52.512;13.450;2022-10-22T05:41:26;15.17;;;13.77;;
50555;SDS011;36508;52.512;13.450;2022-10-22T05:43:55;17.97;;;16.03;;
50555;SDS011;36508;52.512;13.450;2022-10-22T05:46:28;17.17;;;15.47;;
50555;SDS011;36508;52.512;13.450;2022-10-22T05:48:55;17.30;;;15.70;;
50555;SDS011;36508;52.512;13.450;2022-10-22T05:51:26;17.77;;;16.27;;
50555;SDS011;36508;52.512;13.450;2022-10-22T05:53:56;19.40;;;17.40;;
50555;SDS011;36508;52.512;13.450;2022-10-22T05:56:29;17.93;;;16.27;;
50555;SDS011;36508;52.512;13.450;2022-10-22T05:58:56;15.97;;;14.63;;
50555;SDS011;36508;52.512;13.450;2022-10-22T06:01:23;16.33;;;14.90;;
50555;SDS011;36508;52.512;13.450;2022-10-22T06:03:55;20.00;;;17.80;;
50555;SDS011;36508;52.512;13.450;2022-10-22T06:06:36;18.30;;;16.60;;
50555;SDS011;36508;52.512;13.450;2022-10-22T06:09:12;17.43;;;15.60;;
50555;SDS011;36508;52.512;13.450;2022-10-22T06:11:44;16.93;;;15.33;;
50555;SDS011;36508;52.512;13.450;2022-10-22T06:14:16;16.97;;;15.47;;
50555;SDS011;36508;52.512;13.450;2022-10-22T06:16:43;17.77;;;16.13;;
50555;SDS011;36508;52.512;13.450;2022-10-22T06:19:10;18.30;;;16.50;;
50555;SDS011;36508;52.512;13.450;2022-10-22T06:21:36;18.83;;;17.13;;
50555;SDS011;36508;52.512;13.450;2022-10-22T06:24:02;18.63;;;17.03;;
50555;SDS011;36508;52.512;13.450;2022-10-22T06:26:28;17.07;;;15.50;;
50555;SDS011;36508;52.512;13.450;2022-10-22T06:28:54;16.07;;;14.73;;
50555;SDS011;36508;52.512;13.450;2022-10-22T06:31:20;17.67;;;16.17;;
50555;SDS011;36508;52.512;13.450;2022-10-22T06:33:46;16.87;;;15.53;;
50555;SDS011;36508;52.512;13.450;2022-10-22T06:36:13;16.10;;;14.73;;
50555;SDS011;36508;52.512;13.450;2022-10-22T06:38:40;19.27;;;17.50;;
50555;SDS011;36508;52.512;13.450;2022-10-22T06:41:07;18.43;;;16.60;;
50555;SDS011;36508;52.512;13.450;2022-10-22T06:43:34;16.97;;;15.57;;
50555;SDS011;36508;52.512;13.450;2022-10-22T06:46:01;16.80;;;15.23;;
50555;SDS011;36508;52.512;13.450;2022-10-22T06:48:28;18.67;;;16.87;;
50555;SDS011;36508;52.512;13.450;2022-10-22T06:50:54;17.27;;;15.80;;
50555;SDS011;36508;52.512;13.450;2022-10-22T06:53:20;18.10;;;16.43;;
50555;SDS011;36508;52.512;13.450;2022-10-22T06:55:45;16.67;;;15.27;;
50555;SDS011;36508;52.512;13.450;2022-10-22T06:58:11;18.40;;;16.60;;
50555;SDS011;36508;52.512;13.450;2022-10-22T07:00:36;19.57;;;17.73;;
50555;SDS011;36508;52.512;13.450;2022-10-22T07:03:02;17.47;;;15.80;;
50555;SDS011;36508;52.512;13.450;2022-10-22T07:05:27;18.07;;;16.50;;
50555;SDS011;36508;52.512;13.450;2022-10-22T07:07:53;17.60;;;16.13;;
50555;SDS011;36508;52.512;13.450;2022-10-22T07:10:18;17.33;;;15.60;;
50555;SDS011;36508;52.512;13.450;2022-10-22T07:12:44;19.43;;;17.77;;
50555;SDS011;36508;52.512;13.450;2022-10-22T07:15:09;17.47;;;15.77;;
50555;SDS011;36508;52.512;13.450;2022-10-22T07:17:35;17.37;;;15.57;;
50555;SDS011;36508;52.512;13.450;2022-10-22T07:20:01;18.87;;;17.07;;
50555;SDS011;36508;52.512;13.450;2022-10-22T07:22:26;16.73;;;15.33;;
50555;SDS011;36508;52.512;13.450;2022-10-22T07:24:51;15.30;;;14.00;;
50555;SDS011;36508;52.512;13.450;2022-10-22T07:27:17;21.00;;;15.10;;
50555;SDS011;36508;52.512;13.450;2022-10-22T07:29:42;18.40;;;16.43;;
50555;SDS011;36508;52.512;13.450;2022-10-22T07:32:08;17.23;;;15.60;;
50555;SDS011;36508;52.512;13.450;2022-10-22T07:34:33;17.37;;;15.70;;
50555;SDS011;36508;52.512;13.450;2022-10-22T07:36:59;15.70;;;14.30;;
50555;SDS011;36508;52.512;13.450;2022-10-22T07:39:24;16.27;;;14.67;;
50555;SDS011;36508;52.512;13.450;2022-10-22T07:41:50;15.33;;;14.03;;
50555;SDS011;36508;52.512;13.450;2022-10-22T07:44:19;17.20;;;15.60;;
50555;SDS011;36508;52.512;13.450;2022-10-22T07:46:44;14.93;;;13.73;;
50555;SDS011;36508;52.512;13.450;2022-10-22T07:49:10;14.83;;;13.43;;
50555;SDS011;36508;52.512;13.450;2022-10-22T07:51:35;16.17;;;14.53;;
50555;SDS011;36508;52.512;13.450;2022-10-22T07:54:01;15.57;;;14.17;;
50555;SDS011;36508;52.512;13.450;2022-10-22T07:56:26;18.30;;;16.70;;
50555;SDS011;36508;52.512;13.450;2022-10-22T07:58:52;17.67;;;15.63;;
50555;SDS011;36508;52.512;13.450;2022-10-22T08:01:17;16.90;;;15.30;;
50555;SDS011;36508;52.512;13.450;2022-10-22T08:03:43;15.93;;;14.63;;
50555;SDS011;36508;52.512;13.450;2022-10-22T08:06:09;16.53;;;15.13;;
50555;SDS011;36508;52.512;13.450;2022-10-22T08:08:38;16.60;;;15.10;;
50555;SDS011;36508;52.512;13.450;2022-10-22T08:11:05;15.70;;;14.33;;
50555;SDS011;36508;52.512;13.450;2022-10-22T08:13:30;15.43;;;14.17;;
50555;SDS011;36508;52.512;13.450;2022-10-22T08:15:57;17.17;;;15.87;;
50555;SDS011;36508;52.512;13.450;2022-10-22T08:18:24;15.30;;;14.10;;
50555;SDS011;36508;52.512;13.450;2022-10-22T08:20:50;14.93;;;13.67;;
50555;SDS011;36508;52.512;13.450;2022-10-22T08:23:16;15.20;;;13.60;;
50555;SDS011;36508;52.512;13.450;2022-10-22T08:25:43;16.37;;;14.97;;
50555;SDS011;36508;52.512;13.450;2022-10-22T08:28:08;18.00;;;15.40;;
50555;SDS011;36508;52.512;13.450;2022-10-22T08:30:35;18.67;;;17.00;;
50555;SDS011;36508;52.512;13.450;2022-10-22T08:33:02;15.17;;;13.77;;
50555;SDS011;36508;52.512;13.450;2022-10-22T08:35:28;15.90;;;14.53;;
50555;SDS011;36508;52.512;13.450;2022-10-22T08:37:54;16.80;;;15.27;;
50555;SDS011;36508;52.512;13.450;2022-10-22T08:40:38;15.77;;;14.37;;
50555;SDS011;36508;52.512;13.450;2022-10-22T08:51:06;16.13;;;14.77;;
50555;SDS011;36508;52.512;13.450;2022-10-22T08:53:50;15.60;;;14.20;;
50555;SDS011;36508;52.512;13.450;2022-10-22T08:56:17;17.33;;;15.70;;
50555;SDS011;36508;52.512;13.450;2022-10-22T09:01:37;15.73;;;14.23;;
50555;SDS011;36508;52.512;13.450;2022-10-22T09:06:35;16.47;;;15.17;;
50555;SDS011;36508;52.512;13.450;2022-10-22T09:09:08;18.03;;;16.33;;
50555;SDS011;36508;52.512;13.450;2022-10-22T09:11:47;14.77;;;13.60;;
50555;SDS011;36508;52.512;13.450;2022-10-22T09:14:17;15.93;;;14.57;;
50555;SDS011;36508;52.512;13.450;2022-10-22T09:17:04;14.53;;;13.30;;
50555;SDS011;36508;52.512;13.450;2022-10-22T09:20:02;16.30;;;14.83;;
50555;SDS011;36508;52.512;13.450;2022-10-22T09:25:40;15.30;;;13.90;;
50555;SDS011;36508;52.512;13.450;2022-10-22T09:28:08;15.20;;;13.77;;
50555;SDS011;36508;52.512;13.450;2022-10-22T09:30:34;15.30;;;13.73;;
50555;SDS011;36508;52.512;13.450;2022-10-22T09:35:29;14.97;;;13.83;;
50555;SDS011;36508;52.512;13.450;2022-10-22T09:37:58;16.37;;;15.07;;
50555;SDS011;36508;52.512;13.450;2022-10-22T09:40:31;15.70;;;14.40;;
50555;SDS011;36508;52.512;13.450;2022-10-22T09:43:05;15.33;;;14.00;;
50555;SDS011;36508;52.512;13.450;2022-10-22T09:45:31;17.07;;;15.63;;
50555;SDS011;36508;52.512;13.450;2022-10-22T09:48:10;20.90;;;17.37;;
50555;SDS011;36508;52.512;13.450;2022-10-22T09:50:43;16.30;;;14.90;;
50555;SDS011;36508;52.512;13.450;2022-10-22T09:53:11;14.57;;;13.40;;
50555;SDS011;36508;52.512;13.450;2022-10-22T09:55:40;15.40;;;14.10;;
50555;SDS011;36508;52.512;13.450;2022-10-22T09:58:07;14.50;;;13.40;;
50555;SDS011;36508;52.512;13.450;2022-10-22T10:00:38;33.57;;;28.63;;
50555;SDS011;36508;52.512;13.450;2022-10-22T10:03:05;22.93;;;19.20;;
50555;SDS011;36508;52.512;13.450;2022-10-22T10:05:31;15.13;;;13.73;;
50555;SDS011;36508;52.512;13.450;2022-10-22T10:08:00;15.30;;;14.10;;
50555;SDS011;36508;52.512;13.450;2022-10-22T10:10:40;15.00;;;13.80;;
50555;SDS011;36508;52.512;13.450;2022-10-22T10:13:11;14.80;;;13.50;;
50555;SDS011;36508;52.512;13.450;2022-10-22T10:24:28;15.97;;;14.67;;
50555;SDS011;36508;52.512;13.450;2022-10-22T10:27:23;17.57;;;15.73;;
50555;SDS011;36508;52.512;13.450;2022-10-22T10:30:16;14.47;;;13.30;;
50555;SDS011;36508;52.512;13.450;2022-10-22T10:35:35;15.17;;;13.57;;
50555;SDS011;36508;52.512;13.450;2022-10-22T10:44:14;14.70;;;12.73;;
50555;SDS011;36508;52.512;13.450;2022-10-22T10:50:26;16.27;;;14.93;;
50555;SDS011;36508;52.512;13.450;2022-10-22T10:55:52;19.40;;;17.50;;
50555;SDS011;36508;52.512;13.450;2022-10-22T10:58:29;16.00;;;14.53;;
50555;SDS011;36508;52.512;13.450;2022-10-22T11:04:02;15.00;;;13.70;;
50555;SDS011;36508;52.512;13.450;2022-10-22T11:06:32;15.90;;;14.60;;
50555;SDS011;36508;52.512;13.450;2022-10-22T11:09:02;16.83;;;15.30;;
50555;SDS011;36508;52.512;13.450;2022-10-22T11:11:34;14.27;;;12.97;;
50555;SDS011;36508;52.512;13.450;2022-10-22T11:14:21;14.90;;;13.60;;
50555;SDS011;36508;52.512;13.450;2022-10-22T11:17:10;17.40;;;15.90;;
50555;SDS011;36508;52.512;13.450;2022-10-22T11:20:26;29.27;;;24.73;;
50555;SDS011;36508;52.512;13.450;2022-10-22T11:22:30;15.57;;;14.17;;
50555;SDS011;36508;52.512;13.450;2022-10-22T11:25:15;16.73;;;15.10;;
50555;SDS011;36508;52.512;13.450;2022-10-22T11:27:51;17.50;;;15.87;;
50555;SDS011;36508;52.512;13.450;2022-10-22T11:30:19;20.27;;;18.30;;
50555;SDS011;36508;52.512;13.450;2022-10-22T11:32:48;23.17;;;20.80;;
50555;SDS011;36508;52.512;13.450;2022-10-22T11:35:23;19.57;;;17.97;;
50555;SDS011;36508;52.512;13.450;2022-10-22T11:37:51;17.77;;;16.20;;
50555;SDS011;36508;52.512;13.450;2022-10-22T11:43:29;17.40;;;15.77;;
50555;SDS011;36508;52.512;13.450;2022-10-22T11:45:59;19.40;;;16.50;;
50555;SDS011;36508;52.512;13.450;2022-10-22T11:48:59;16.63;;;15.20;;
50555;SDS011;36508;52.512;13.450;2022-10-22T11:51:31;16.00;;;14.67;;
50555;SDS011;36508;52.512;13.450;2022-10-22T11:54:00;15.93;;;14.40;;
50555;SDS011;36508;52.512;13.450;2022-10-22T11:56:46;15.30;;;13.90;;
50555;SDS011;36508;52.512;13.450;2022-10-22T11:59:29;15.73;;;14.43;;
50555;SDS011;36508;52.512;13.450;2022-10-22T12:02:28;26.10;;;23.50;;
50555;SDS011;36508;52.512;13.450;2022-10-22T12:05:18;13.77;;;12.40;;
50555;SDS011;36508;52.512;13.450;2022-10-22T12:10:35;15.13;;;13.80;;
50555;SDS011;36508;52.512;13.450;2022-10-22T12:13:33;18.10;;;15.60;;
50555;SDS011;36508;52.512;13.450;2022-10-22T12:19:45;14.10;;;12.97;;
50555;SDS011;36508;52.512;13.450;2022-10-22T12:24:46;14.77;;;13.57;;
50555;SDS011;36508;52.512;13.450;2022-10-22T12:27:20;13.87;;;12.57;;
50555;SDS011;36508;52.512;13.450;2022-10-22T12:29:47;10.40;;;9.30;;
50555;SDS011;36508;52.512;13.450;2022-10-22T12:32:17;9.67;;;8.73;;
50555;SDS011;36508;52.512;13.450;2022-10-22T12:34:49;10.53;;;9.57;;
50555;SDS011;36508;52.512;13.450;2022-10-22T12:37:16;9.00;;;8.30;;
50555;SDS011;36508;52.512;13.450;2022-10-22T12:39:43;9.13;;;8.20;;
50555;SDS011;36508;52.512;13.450;2022-10-22T12:42:11;8.27;;;7.70;;
50555;SDS011;36508;52.512;13.450;2022-10-22T12:44:38;9.97;;;8.00;;
50555;SDS011;36508;52.512;13.450;2022-10-22T12:47:04;9.57;;;7.80;;
50555;SDS011;36508;52.512;13.450;2022-10-22T12:49:38;7.57;;;6.90;;
50555;SDS011;36508;52.512;13.450;2022-10-22T12:52:07;6.80;;;6.20;;
50555;SDS011;36508;52.512;13.450;2022-10-22T12:54:40;7.27;;;6.03;;
50555;SDS011;36508;52.512;13.450;2022-10-22T12:57:09;6.73;;;6.20;;
50555;SDS011;36508;52.512;13.450;2022-10-22T12:59:37;7.17;;;6.57;;
50555;SDS011;36508;52.512;13.450;2022-10-22T13:02:24;10.90;;;6.13;;
50555;SDS011;36508;52.512;13.450;2022-10-22T13:07:51;6.17;;;5.67;;
50555;SDS011;36508;52.512;13.450;2022-10-22T13:10:35;6.20;;;5.13;;
50555;SDS011;36508;52.512;13.450;2022-10-22T13:13:03;5.33;;;5.03;;
50555;SDS011;36508;52.512;13.450;2022-10-22T13:23:19;3.60;;;3.30;;
50555;SDS011;36508;52.512;13.450;2022-10-22T13:28:35;5.13;;;3.63;;
50555;SDS011;36508;52.512;13.450;2022-10-22T13:31:08;4.43;;;4.03;;
50555;SDS011;36508;52.512;13.450;2022-10-22T13:33:37;4.50;;;4.10;;
50555;SDS011;36508;52.512;13.450;2022-10-22T13:36:04;3.73;;;3.40;;
50555;SDS011;36508;52.512;13.450;2022-10-22T13:38:30;6.50;;;4.90;;
50555;SDS011;36508;52.512;13.450;2022-10-22T13:40:56;5.13;;;4.63;;
50555;SDS011;36508;52.512;13.450;2022-10-22T13:43:23;6.20;;;4.87;;
50555;SDS011;36508;52.512;13.450;2022-10-22T13:45:58;7.53;;;4.53;;
50555;SDS011;36508;52.512;13.450;2022-10-22T13:48:24;6.80;;;5.00;;
50555;SDS011;36508;52.512;13.450;2022-10-22T13:50:51;5.43;;;3.83;;
50555;SDS011;36508;52.512;13.450;2022-10-22T13:53:19;5.70;;;5.20;;
50555;SDS011;36508;52.512;13.450;2022-10-22T13:55:47;4.00;;;3.50;;
50555;SDS011;36508;52.512;13.450;2022-10-22T13:58:15;3.73;;;2.47;;
50555;SDS011;36508;52.512;13.450;2022-10-22T14:00:43;4.43;;;3.90;;
50555;SDS011;36508;52.512;13.450;2022-10-22T14:03:11;4.70;;;3.47;;
50555;SDS011;36508;52.512;13.450;2022-10-22T14:05:39;3.37;;;3.17;;
50555;SDS011;36508;52.512;13.450;2022-10-22T14:08:11;6.47;;;3.93;;
50555;SDS011;36508;52.512;13.450;2022-10-22T14:10:40;5.43;;;3.57;;
50555;SDS011;36508;52.512;13.450;2022-10-22T14:13:06;8.90;;;4.13;;
50555;SDS011;36508;52.512;13.450;2022-10-22T14:15:36;5.60;;;4.33;;
50555;SDS011;36508;52.512;13.450;2022-10-22T14:18:03;7.70;;;2.83;;
50555;SDS011;36508;52.512;13.450;2022-10-22T14:20:30;4.87;;;4.37;;
50555;SDS011;36508;52.512;13.450;2022-10-22T14:23:18;3.23;;;2.80;;
50555;SDS011;36508;52.512;13.450;2022-10-22T14:25:45;8.83;;;4.40;;
50555;SDS011;36508;52.512;13.450;2022-10-22T14:28:11;5.60;;;3.33;;
50555;SDS011;36508;52.512;13.450;2022-10-22T14:30:37;4.57;;;3.10;;
50555;SDS011;36508;52.512;13.450;2022-10-22T14:33:14;7.23;;;3.50;;
50555;SDS011;36508;52.512;13.450;2022-10-22T14:35:48;6.70;;;3.80;;
50555;SDS011;36508;52.512;13.450;2022-10-22T14:38:14;2.67;;;2.47;;
50555;SDS011;36508;52.512;13.450;2022-10-22T14:40:40;3.23;;;2.87;;
50555;SDS011;36508;52.512;13.450;2022-10-22T14:43:09;5.50;;;3.17;;
50555;SDS011;36508;52.512;13.450;2022-10-22T14:45:40;8.90;;;3.33;;
50555;SDS011;36508;52.512;13.450;2022-10-22T14:48:05;3.70;;;3.40;;
50555;SDS011;36508;52.512;13.450;2022-10-22T14:50:32;5.83;;;3.47;;
50555;SDS011;36508;52.512;13.450;2022-10-22T14:52:57;3.30;;;3.00;;
50555;SDS011;36508;52.512;13.450;2022-10-22T14:55:23;6.90;;;2.60;;
50555;SDS011;36508;52.512;13.450;2022-10-22T14:57:51;3.70;;;3.23;;
50555;SDS011;36508;52.512;13.450;2022-10-22T15:00:17;5.23;;;3.20;;
50555;SDS011;36508;52.512;13.450;2022-10-22T15:02:44;3.83;;;2.67;;
50555;SDS011;36508;52.512;13.450;2022-10-22T15:05:10;5.60;;;3.27;;
50555;SDS011;36508;52.512;13.450;2022-10-22T15:07:36;4.53;;;3.00;;
50555;SDS011;36508;52.512;13.450;2022-10-22T15:10:02;3.80;;;3.50;;
50555;SDS011;36508;52.512;13.450;2022-10-22T15:12:28;3.37;;;2.60;;
50555;SDS011;36508;52.512;13.450;2022-10-22T15:14:54;4.20;;;3.33;;
50555;SDS011;36508;52.512;13.450;2022-10-22T15:17:19;6.70;;;3.87;;
50555;SDS011;36508;52.512;13.450;2022-10-22T15:19:44;6.80;;;3.60;;
50555;SDS011;36508;52.512;13.450;2022-10-22T15:22:10;5.97;;;4.20;;
50555;SDS011;36508;52.512;13.450;2022-10-22T15:24:37;6.83;;;5.23;;
50555;SDS011;36508;52.512;13.450;2022-10-22T15:27:03;8.03;;;4.30;;
50555;SDS011;36508;52.512;13.450;2022-10-22T15:29:29;3.50;;;2.87;;
50555;SDS011;36508;52.512;13.450;2022-10-22T15:31:56;8.40;;;3.87;;
50555;SDS011;36508;52.512;13.450;2022-10-22T15:34:24;10.50;;;5.17;;
50555;SDS011;36508;52.512;13.450;2022-10-22T15:36:50;4.43;;;4.03;;
50555;SDS011;36508;52.512;13.450;2022-10-22T15:39:17;7.30;;;3.63;;
50555;SDS011;36508;52.512;13.450;2022-10-22T15:41:43;7.43;;;4.00;;
50555;SDS011;36508;52.512;13.450;2022-10-22T15:44:13;3.83;;;3.27;;
50555;SDS011;36508;52.512;13.450;2022-10-22T15:46:44;3.83;;;3.13;;
50555;SDS011;36508;52.512;13.450;2022-10-22T15:49:10;6.93;;;3.83;;
50555;SDS011;36508;52.512;13.450;2022-10-22T15:51:36;5.27;;;4.70;;
50555;SDS011;36508;52.512;13.450;2022-10-22T15:54:02;3.20;;;2.87;;
50555;SDS011;36508;52.512;13.450;2022-10-22T15:56:28;6.30;;;3.00;;